Weather at Incheon International Airport

Public forecast

Using degrees Celsius for public forecast. Weather courtesy of forecast.io.

Current aviation weather report (METAR) for Incheon International Airport

2024/05/18 10:00 (retrieved 21 minutes ago)

RKSI 181000Z 24006KT CAVOK 20/14 Q1016 NOSIG

Aviation forecast (TAF) for Incheon International Airport

2024/05/18 06:00 (retrieved 4 hours ago)

TAF RKSI 180500Z 1806/1912 21007KT CAVOK TN13/1820Z TX24/1905Z BECMG 1814/1816 07006KT 4000 BR NSC TEMPO 1820/1822 0800 FG BKN003 BECMG 1823/1901 24006KT 6000 NSW BECMG 1904/1906 30006KT